SBGL

RIOgaleão – Tom Jobim International Airport

Rio De Janeiro, Brazil
TAF SBGL 182040Z 1900/2006 12005KT 9999 FEW025 TN26/1908Z TX36/1917Z BECMG 1900/1903 31005KT BECMG 1907/1910 03005KT BECMG 1914/1917 14010KT BE CMG 1920/1922 24010KT 7000 TS SCT025 FEW030CB BECMG 2000/2002 30005KT 80 00 NSW FEW020 RMK PHC
Issued Valid From Valid To
Jan-18 @ 20:40 UTC
(6 hours ago)
Jan-19 @ 00:00 UTC
(3 hours ago)
Jan-20 @ 06:00 UTC
(-1 days ago)
Jan-19 @ 00:00 to Jan-20 @ 06:00
TAF SBGL 182040Z 1900/2006 12005KT 9999 FEW025 TN26/1908Z TX36/1917Z
Wind Visibility Clouds
120° at 5 knots 10,000+ meters
  • Few at 2,500' AGL
Becoming Jan-19 @ 00:00 to Jan-19 @ 07:00
BECMG 1900/1903 31005KT
Wind Visibility Clouds
310° at 5 knots 10,000+ meters
  • Few at 2,500' AGL
Becoming Jan-19 @ 07:00 to Jan-19 @ 14:00
BECMG 1907/1910 03005KT
Wind Visibility Clouds
30° at 5 knots 10,000+ meters
  • Few at 2,500' AGL
Becoming Jan-19 @ 14:00 to Jan-20 @ 00:00
BECMG 1914/1917 14010KT BE CMG 1920/1922 24010KT 7000 TS SCT025 FEW030CB
Wind Visibility Clouds Conditions
140° at 10 knots 1,915 meters
  • Scattered at 2,500' AGL
  • Few at 3,000' AGL
  • Thunderstorm
Becoming Jan-20 @ 00:00 to Jan-20 @ 06:00
BECMG 2000/2002 30005KT 80 00 NSW FEW020 RMK PHC
Wind Visibility Clouds Conditions
300° at 5 knots 1,915 meters
  • Few at 2,000' AGL
TAF SBGL 182040Z 1900/2006 12005KT 9999 FEW025 TN26/1908Z TX36/1917Z BECMG 1900/1903 31005KT BECMG 1907/1910 03005KT BECMG 1914/1917 14010KT BE CMG 1920/1922 24010KT 7000 TS SCT025 FEW030CB BECMG 2000/2002 30005KT 80 00 NSW FEW020 RMK PHC
Issued Jan-18 @ 20:40 UTC
(6 hours ago)
Valid From Jan-19 @ 00:00 UTC
(3 hours ago)
Valid To Jan-20 @ 06:00 UTC
(-1 days ago)
Jan-19 @ 00:00 - Jan-20 @ 06:00
Wind Visibility
120° at 5 knots 10,000+ meters
Clouds
  • Few at 2,500' AGL
Becoming Jan-19 @ 00:00 - Jan-19 @ 07:00
Wind Visibility
310° at 5 knots 10,000+ meters
Clouds
  • Few at 2,500' AGL
Becoming Jan-19 @ 07:00 - Jan-19 @ 14:00
Wind Visibility
30° at 5 knots 10,000+ meters
Clouds
  • Few at 2,500' AGL
Becoming Jan-19 @ 14:00 - Jan-20 @ 00:00
Wind Visibility
140° at 10 knots 1,915 meters
Clouds
  • Scattered at 2,500' AGL
  • Few at 3,000' AGL
Conditions
  • Thunderstorm
Becoming Jan-20 @ 00:00 - Jan-20 @ 06:00
Wind Visibility
300° at 5 knots 1,915 meters
Clouds
  • Few at 2,000' AGL
Conditions